Aérodrome :
LOGIN :

S'inscrire | Disclaimer

   EN    FR    IT 

 










Légende :    VFR   VFR Marginal   IFR   IFR Intensif   IFR Très Intensif
Visi : 
Plafond : 
>= 8 km
>= 3000ft
5 à 8 km
1000 à 3000 ft
1500m à 5 km
500 à 1000 ft
800 à 1500m
200 à 500 ft
< 800m
< 200 ft
Symboles :   Orages  Brouillard  Fortes neiges  Fortes précipitations  Vent > 20 kt
SIGMETs :   Divers  Orages  Givrage  Turbulence  Onde Orograph.  Cendres Volcan.







- Altitude de l'aérodrome : 3 ft
- Code IATA : LWR


EHLW - Leuuwarden Air Base

DERNIER METAR :
  • 160555Z AUTO 19007KT 160V220 9999 NCD 03/01 Q1022 BLU

METARs EXPIRÉS :
  • 160525Z AUTO 18008KT 150V220 9999 NCD 03/01 Q1022 BLU
  • 160455Z AUTO 19007KT 160V220 9999 NCD 02/00 Q1023 BLU
  • 160425Z AUTO 19007KT 160V220 9999 NCD 02/01 Q1023 BLU
  • 160355Z AUTO 18006KT 160V220 9999 NCD 03/01 Q1023 BLU
  • 160325Z AUTO 18007KT 140V220 9999 NCD 02/01 Q1023 BLU

TAF COR TAF EHLW
Valide du 16 à 06h jusqu'au 16 à 18h UTC


160501Z 1606/1618 20010KT CAVOK
TEMPO 1609/1616 22010G20KT
BECMG 1613/1615 BKN018
PROB40
TEMPO 1614/1618 BKN010
Pas de NOTAMs connus pour ce terrain.



MET'MAP, la Météo Aéronautique d'un coup d'oeil ! - Copyright ORBIFLY Décembre 2007 - Disclaimer

ORBIFLY MET'MAP TEAM :

Programmation & Développement : Alexandra Zaïnal
Conception & Développement : Baudouin d'Aumeries
Co-Programmation & Développement : Marc-Olivier Méhu
Soutien technique & logistique : Manuel Goepfert

Contact : metmap@orbifly.com




SOURCES & CREDITS :

   NOAA